createdAt,value
2023-08-22T00:00:39.320Z,8.57
2023-08-22T00:05:54.797Z,8.69
2023-08-22T00:11:13.545Z,8.69
2023-08-22T00:16:31.041Z,8.72
2023-08-22T00:21:47.754Z,8.72
2023-08-22T00:27:03.279Z,8.66
2023-08-22T00:32:19.460Z,8.66
2023-08-22T00:37:35.036Z,8.68
2023-08-22T00:42:51.111Z,8.68
2023-08-22T00:48:07.558Z,8.85
2023-08-22T00:53:23.550Z,8.85
2023-08-22T00:58:41.504Z,8.46
2023-08-22T01:03:58.746Z,8.46
2023-08-22T01:09:14.500Z,8.78
2023-08-22T01:14:30.662Z,8.78
2023-08-22T01:19:46.805Z,8.42
2023-08-22T01:25:03.607Z,8.42
2023-08-22T01:30:19.133Z,8.78
2023-08-22T01:32:18.657Z,8.78
2023-08-22T01:37:27.308Z,8.78
2023-08-22T01:42:42.203Z,8.78
2023-08-22T01:47:57.887Z,8.71
2023-08-22T01:53:12.590Z,8.71
2023-08-22T01:58:28.085Z,8.6
2023-08-22T02:03:45.637Z,8.6
2023-08-22T02:09:01.040Z,8.67
2023-08-22T02:14:17.593Z,8.67
2023-08-22T02:19:34.695Z,8.81
2023-08-22T02:24:52.126Z,8.81
2023-08-22T02:30:07.749Z,8.63
2023-08-22T02:35:24.390Z,8.63
2023-08-22T02:40:41.197Z,8.71
2023-08-22T02:45:58.206Z,8.55
2023-08-22T02:51:12.268Z,8.55
2023-08-22T02:56:28.427Z,8.76
2023-08-22T03:01:45.205Z,8.76
2023-08-22T03:07:29.556Z,8.77
2023-08-22T03:12:47.039Z,8.77
2023-08-22T03:18:03.483Z,8.64
2023-08-22T03:23:19.443Z,8.64
2023-08-22T03:28:36.152Z,8.49
2023-08-22T03:33:52.880Z,8.49
2023-08-22T03:39:09.038Z,8.63
2023-08-22T03:44:24.616Z,8.63
2023-08-22T03:49:41.510Z,8.74
2023-08-22T03:54:57.004Z,8.74
2023-08-22T04:00:16.095Z,8.84
2023-08-22T04:05:31.901Z,8.84
2023-08-22T04:10:48.064Z,8.74
2023-08-22T04:16:05.527Z,8.67
2023-08-22T06:02:48.860Z,8.69
2023-08-22T06:07:58.312Z,8.54
2023-08-22T06:13:15.158Z,8.54
2023-08-22T06:18:31.272Z,8.77
2023-08-22T06:23:51.310Z,8.77
2023-08-22T06:29:08.330Z,8.85
2023-08-22T06:34:23.632Z,8.85
2023-08-22T06:39:41.091Z,8.63
2023-08-22T06:44:58.659Z,8.63
2023-08-22T06:50:13.519Z,8.73
2023-08-22T06:55:28.907Z,8.73
2023-08-22T07:00:44.416Z,8.72
2023-08-22T07:06:00.608Z,8.72
2023-08-22T07:11:16.777Z,8.85
2023-08-22T07:16:32.485Z,8.85
2023-08-22T07:21:48.392Z,8.89
2023-08-22T07:27:03.968Z,8.84
2023-08-22T07:32:19.711Z,8.84
2023-08-22T07:37:35.719Z,9.01
2023-08-22T07:42:51.120Z,9.01
2023-08-22T07:48:07.076Z,8.69
2023-08-22T07:53:21.551Z,8.69
2023-08-22T07:58:36.411Z,8.7
2023-08-22T08:03:53.075Z,8.7
2023-08-22T08:09:36.920Z,9.07
2023-08-22T08:14:26.249Z,9.07
2023-08-22T08:19:41.856Z,8.72
2023-08-22T08:24:57.243Z,8.72
2023-08-22T08:30:13.411Z,8.66
2023-08-22T08:35:28.884Z,8.66
2023-08-22T08:41:19.646Z,8.69
2023-08-22T08:46:40.073Z,8.69
2023-08-22T08:52:12.440Z,8.91
2023-08-22T08:57:27.943Z,8.67
2023-08-22T09:02:43.763Z,8.67
2023-08-22T09:08:00.882Z,8.77
2023-08-22T09:13:18.981Z,8.77
2023-08-22T09:18:36.610Z,8.7
2023-08-22T09:23:51.351Z,8.7
2023-08-22T09:29:07.120Z,8.83
2023-08-22T09:34:22.574Z,8.83
2023-08-22T09:39:39.765Z,8.79
2023-08-22T09:44:55.316Z,8.79
2023-08-22T09:50:10.816Z,8.64
2023-08-22T09:55:27.597Z,8.64
2023-08-22T10:00:44.438Z,8.78
2023-08-22T10:06:02.488Z,8.78
2023-08-22T10:11:19.324Z,8.8
2023-08-22T10:16:34.830Z,8.8
2023-08-22T10:21:49.968Z,8.81
2023-08-22T10:27:06.277Z,8.81
2023-08-22T10:32:22.437Z,8.73
2023-08-22T10:37:37.566Z,8.73
2023-08-22T10:42:53.061Z,8.82
2023-08-22T10:48:09.484Z,8.67
2023-08-22T10:53:25.103Z,8.67
2023-08-22T10:58:39.756Z,8.56
2023-08-22T11:04:00.544Z,8.56
2023-08-22T11:09:17.059Z,8.64
2023-08-22T11:14:34.492Z,8.64
2023-08-22T11:19:50.005Z,8.62
2023-08-22T11:25:06.835Z,8.62
2023-08-22T11:30:24.921Z,8.69
2023-08-22T11:35:42.307Z,8.69
2023-08-22T11:40:59.177Z,8.57
2023-08-22T11:46:16.785Z,8.57
2023-08-22T11:51:32.739Z,8.6
2023-08-22T11:56:50.143Z,8.6
2023-08-22T12:02:06.636Z,8.64
2023-08-22T12:07:22.463Z,8.64
2023-08-22T12:12:38.030Z,8.71
2023-08-22T12:17:53.160Z,8.71
2023-08-22T12:23:09.699Z,8.55
2023-08-22T12:28:25.948Z,8.55
2023-08-22T12:33:42.654Z,8.7
2023-08-22T12:38:59.456Z,8.74
2023-08-22T12:44:02.184Z,8.74
2023-08-22T14:05:58.015Z,8.7
2023-08-22T14:11:27.626Z,8.48
2023-08-22T14:16:43.755Z,8.48
2023-08-22T14:21:59.967Z,8.32
2023-08-22T14:27:16.090Z,8.32
2023-08-22T14:32:34.420Z,8.42
2023-08-22T14:37:49.198Z,8.42
2023-08-22T14:43:47.507Z,8.46
2023-08-22T14:49:04.895Z,8.46
2023-08-22T14:54:24.887Z,8.71
2023-08-22T14:59:40.401Z,8.54
2023-08-22T15:04:56.561Z,8.54
2023-08-22T15:10:12.763Z,8.44
2023-08-22T15:15:27.604Z,8.44
2023-08-22T15:20:43.123Z,8.45
2023-08-22T15:25:59.392Z,8.45
2023-08-22T15:31:15.719Z,8.68
2023-08-22T15:36:30.986Z,8.68
2023-08-22T15:41:49.027Z,8.36
2023-08-22T15:47:06.503Z,8.36
2023-08-22T15:52:42.577Z,8.49
2023-08-22T15:57:38.224Z,8.49
2023-08-22T16:02:53.129Z,8.61
2023-08-22T16:08:09.855Z,8.61
2023-08-22T16:13:24.765Z,8.54
2023-08-22T16:18:39.662Z,8.54
2023-08-22T16:23:54.749Z,8.55
2023-08-22T16:29:09.990Z,8.55
2023-08-22T16:34:25.743Z,8.41
2023-08-22T16:39:42.956Z,8.41
2023-08-22T16:44:59.141Z,8.75
2023-08-22T16:50:15.343Z,8.46
2023-08-22T16:55:31.473Z,8.46
2023-08-22T17:00:47.336Z,8.49
2023-08-22T17:06:03.759Z,8.49
2023-08-22T17:11:20.565Z,8.43
2023-08-22T17:16:36.242Z,8.43
2023-08-22T17:21:51.686Z,8.96
2023-08-22T17:27:05.890Z,8.96
2023-08-22T17:32:20.713Z,8.64
2023-08-22T17:37:36.911Z,8.64
2023-08-22T17:42:52.503Z,8.57
2023-08-22T17:48:09.713Z,8.57
2023-08-22T17:53:26.007Z,8.55
2023-08-22T17:58:42.810Z,8.55
2023-08-22T18:03:57.985Z,8.44
2023-08-22T18:09:12.554Z,8.44
2023-08-22T18:14:29.388Z,8.59
2023-08-22T18:19:45.533Z,8.59
2023-08-22T18:25:00.474Z,8.48
2023-08-22T18:30:16.986Z,8.48
2023-08-22T18:35:33.997Z,8.35
2023-08-22T18:40:49.537Z,8.47
2023-08-22T18:46:06.014Z,8.47
2023-08-22T18:51:21.870Z,8.62
2023-08-22T18:56:36.757Z,8.62
2023-08-22T19:01:51.571Z,8.56
2023-08-22T19:07:09.050Z,8.56
2023-08-22T19:12:25.249Z,8.62
2023-08-22T19:17:41.068Z,8.62
2023-08-22T19:22:56.237Z,8.73
2023-08-22T19:28:11.149Z,8.73
2023-08-22T19:33:29.873Z,8.63
2023-08-22T19:38:45.408Z,8.63
2023-08-22T19:44:00.883Z,8.79
2023-08-22T19:49:15.156Z,8.79
2023-08-22T19:54:30.022Z,8.59
2023-08-22T19:59:46.824Z,8.59
2023-08-22T20:05:03.648Z,8.44
2023-08-22T20:10:19.194Z,8.44
2023-08-22T20:15:35.311Z,8.59
2023-08-22T20:20:51.055Z,8.59
2023-08-22T20:26:05.694Z,8.77
2023-08-22T20:31:23.342Z,8.66
2023-08-22T20:36:39.323Z,8.66
2023-08-22T20:41:56.142Z,8.59
2023-08-22T20:47:12.859Z,8.59
2023-08-22T20:52:27.808Z,8.58
2023-08-22T20:57:46.406Z,8.58
2023-08-22T21:03:01.296Z,8.63
2023-08-22T21:08:16.917Z,8.63
2023-08-22T21:13:33.068Z,8.63
2023-08-22T21:18:49.185Z,8.63
2023-08-22T21:24:05.410Z,8.74
2023-08-22T21:29:22.841Z,8.74
2023-08-22T21:34:38.975Z,8.7
2023-08-22T21:39:54.497Z,8.7
2023-08-22T21:45:11.749Z,8.59
2023-08-22T21:50:26.196Z,8.59
2023-08-22T21:55:42.347Z,8.91
2023-08-22T22:01:09.946Z,8.91
2023-08-22T22:06:13.403Z,8.74
2023-08-22T22:11:28.887Z,8.74
2023-08-22T22:16:46.792Z,8.78
2023-08-22T22:21:59.989Z,8.69
2023-08-22T22:23:49.087Z,8.69
2023-08-22T22:28:58.497Z,8.69
2023-08-22T22:34:13.353Z,8.81
2023-08-22T22:39:30.221Z,8.81
2023-08-22T22:40:56.367Z,8.81
